createdAt,value
2018-08-31T00:00:33.368Z,0.00
2018-08-31T00:01:33.274Z,0.00
2018-08-31T00:02:33.181Z,0.00
2018-08-31T00:03:33.087Z,0.00
2018-08-31T00:04:33.007Z,0.00
2018-08-31T00:05:32.896Z,0.00
2018-08-31T00:06:32.904Z,0.00
2018-08-31T00:07:32.711Z,0.00
2018-08-31T00:08:32.613Z,0.00
2018-08-31T00:09:32.536Z,0.00
2018-08-31T00:10:32.432Z,0.00
2018-08-31T00:11:32.330Z,0.00
2018-08-31T00:12:32.236Z,0.00
2018-08-31T00:13:32.239Z,0.00
2018-08-31T00:14:32.063Z,0.00
2018-08-31T00:15:31.956Z,0.00
2018-08-31T00:16:31.857Z,0.00
2018-08-31T00:17:31.761Z,0.00
2018-08-31T00:18:31.671Z,0.00
2018-08-31T00:19:31.591Z,0.00
2018-08-31T00:20:31.599Z,0.00
2018-08-31T00:21:31.386Z,0.00
2018-08-31T00:22:31.290Z,0.00
2018-08-31T00:23:31.201Z,0.00
2018-08-31T00:24:31.118Z,0.00
2018-08-31T00:25:31.008Z,0.00
2018-08-31T00:26:30.912Z,0.00
2018-08-31T00:27:30.916Z,0.00
2018-08-31T00:28:30.726Z,0.00
2018-08-31T00:29:30.648Z,0.00
2018-08-31T00:30:30.537Z,0.00
2018-08-31T00:31:30.440Z,0.00
2018-08-31T00:32:30.345Z,0.00
2018-08-31T00:33:30.253Z,0.00
2018-08-31T00:34:30.273Z,0.00
2018-08-31T00:35:30.062Z,0.00
2018-08-31T00:36:29.965Z,0.00
2018-08-31T00:37:29.874Z,0.00
2018-08-31T00:38:29.778Z,0.00
2018-08-31T00:39:29.697Z,0.00
2018-08-31T00:40:29.716Z,0.00
2018-08-31T00:41:29.500Z,0.00
2018-08-31T00:42:29.400Z,0.00
2018-08-31T00:43:29.306Z,0.00
2018-08-31T00:44:29.226Z,0.00
2018-08-31T00:45:29.114Z,0.00
2018-08-31T00:46:29.021Z,0.00
2018-08-31T00:47:28.924Z,0.00
2018-08-31T00:48:28.830Z,0.00
2018-08-31T00:49:28.741Z,0.00
2018-08-31T00:50:28.659Z,0.00
2018-08-31T00:51:28.546Z,0.00
2018-08-31T00:52:28.452Z,0.00
2018-08-31T00:53:28.360Z,0.00
2018-08-31T00:54:28.265Z,0.00
2018-08-31T00:55:28.186Z,0.00
2018-08-31T00:56:28.073Z,0.00
2018-08-31T00:57:27.980Z,0.00
2018-08-31T00:58:27.890Z,0.00
2018-08-31T00:59:27.795Z,0.00
2018-08-31T01:00:27.714Z,0.00
2018-08-31T01:01:27.604Z,0.00
2018-08-31T01:02:27.512Z,0.00
2018-08-31T01:03:27.413Z,0.00
2018-08-31T01:04:27.320Z,0.00
2018-08-31T01:05:27.240Z,0.00
2018-08-31T01:06:27.133Z,0.00
2018-08-31T01:07:27.039Z,0.00
2018-08-31T01:08:26.939Z,0.00
2018-08-31T01:09:26.847Z,0.00
2018-08-31T01:10:26.769Z,0.00
2018-08-31T01:11:26.654Z,0.00
2018-08-31T01:12:26.559Z,0.00
2018-08-31T01:13:26.466Z,0.00
2018-08-31T01:14:26.373Z,0.00
2018-08-31T01:15:26.292Z,0.00
2018-08-31T01:16:26.180Z,0.00
2018-08-31T01:17:26.088Z,0.00
2018-08-31T01:18:25.991Z,0.00
2018-08-31T01:19:25.896Z,0.00
2018-08-31T01:20:25.817Z,0.00
2018-08-31T01:21:25.707Z,0.00
2018-08-31T01:22:25.613Z,0.00
2018-08-31T01:23:25.521Z,0.00
2018-08-31T01:24:25.425Z,0.00
2018-08-31T01:25:25.347Z,0.00
2018-08-31T01:26:25.236Z,0.00
2018-08-31T01:27:25.139Z,0.00
2018-08-31T01:28:25.046Z,0.00
2018-08-31T01:29:24.952Z,0.00
2018-08-31T01:30:24.874Z,0.00
2018-08-31T01:31:24.759Z,0.00
2018-08-31T01:32:24.667Z,0.00
2018-08-31T01:33:24.572Z,0.00
2018-08-31T01:34:24.480Z,0.00
2018-08-31T01:35:24.402Z,0.00
2018-08-31T01:36:24.286Z,0.00
2018-08-31T01:37:24.196Z,0.00
2018-08-31T01:38:24.100Z,0.00
2018-08-31T01:39:24.007Z,0.00
2018-08-31T01:40:23.927Z,0.00
2018-08-31T01:41:23.839Z,0.00
2018-08-31T01:42:23.719Z,0.00
2018-08-31T01:43:23.628Z,0.00
2018-08-31T01:44:23.535Z,0.00
2018-08-31T01:45:23.459Z,0.00
2018-08-31T01:46:23.346Z,0.00
2018-08-31T01:47:23.252Z,0.00
2018-08-31T01:48:23.162Z,0.00
2018-08-31T01:49:23.068Z,0.00
2018-08-31T01:50:22.986Z,0.00
2018-08-31T01:51:22.871Z,0.00
2018-08-31T01:52:22.774Z,0.00
2018-08-31T01:53:22.682Z,0.00
2018-08-31T01:54:22.588Z,0.00
2018-08-31T01:55:22.509Z,0.00
2018-08-31T01:56:22.399Z,0.00
2018-08-31T01:57:22.304Z,0.00
2018-08-31T01:58:22.213Z,0.00
2018-08-31T01:59:22.117Z,0.00
2018-08-31T02:00:22.043Z,0.00
2018-08-31T02:01:21.931Z,0.00
2018-08-31T02:02:21.835Z,0.00
2018-08-31T02:03:21.738Z,0.00
2018-08-31T02:04:21.647Z,0.00
2018-08-31T02:05:21.568Z,0.00
2018-08-31T02:06:21.458Z,0.00
2018-08-31T02:07:21.361Z,0.00
2018-08-31T02:08:21.265Z,0.00
2018-08-31T02:09:21.196Z,0.00
2018-08-31T02:10:21.097Z,0.00
2018-08-31T02:11:20.987Z,0.00
2018-08-31T02:12:20.891Z,0.00
2018-08-31T02:13:20.796Z,0.00
2018-08-31T02:14:20.700Z,0.00
2018-08-31T02:15:20.622Z,0.00
2018-08-31T02:16:20.514Z,0.00
2018-08-31T02:17:20.419Z,0.00
2018-08-31T02:18:20.327Z,0.00
2018-08-31T02:19:20.231Z,0.00
2018-08-31T02:20:20.153Z,0.00
2018-08-31T02:21:20.044Z,0.00
2018-08-31T02:22:19.948Z,0.00
2018-08-31T02:23:19.851Z,0.00
2018-08-31T02:24:19.760Z,0.00
2018-08-31T02:25:19.684Z,0.00
2018-08-31T02:26:19.578Z,0.00
2018-08-31T02:27:19.761Z,0.00
2018-08-31T02:28:19.382Z,0.00
2018-08-31T02:29:19.284Z,0.00
2018-08-31T02:30:19.192Z,0.00
2018-08-31T02:31:19.111Z,0.00
2018-08-31T02:32:19.003Z,0.00
2018-08-31T02:33:19.011Z,0.00
2018-08-31T02:34:18.815Z,0.00
2018-08-31T02:35:18.735Z,0.00
2018-08-31T02:36:18.625Z,0.00
2018-08-31T02:37:18.528Z,0.00
2018-08-31T02:38:18.434Z,0.00
2018-08-31T02:39:18.408Z,0.00
2018-08-31T02:40:18.353Z,0.00
2018-08-31T02:41:18.168Z,0.00
2018-08-31T02:42:18.109Z,0.00
2018-08-31T02:43:17.961Z,0.00
2018-08-31T02:44:17.870Z,0.00
2018-08-31T02:45:17.777Z,0.00
2018-08-31T02:46:17.693Z,0.00
2018-08-31T02:47:17.685Z,0.00
2018-08-31T02:48:17.488Z,0.00
2018-08-31T02:49:17.401Z,0.00
2018-08-31T02:50:17.301Z,0.00
2018-08-31T02:51:17.225Z,0.00
2018-08-31T02:52:17.108Z,0.00
2018-08-31T02:53:17.021Z,0.00
2018-08-31T02:54:17.026Z,0.00
2018-08-31T02:55:16.827Z,0.00
2018-08-31T02:56:16.747Z,0.00
2018-08-31T02:57:16.637Z,0.00
2018-08-31T02:58:16.541Z,0.00
2018-08-31T02:59:16.446Z,0.00
2018-08-31T03:00:16.353Z,0.00
2018-08-31T03:01:16.377Z,0.00
2018-08-31T03:02:16.173Z,0.00
2018-08-31T03:03:16.070Z,0.00
2018-08-31T03:04:15.978Z,0.00
2018-08-31T03:05:15.883Z,0.00
2018-08-31T03:06:15.811Z,0.00
2018-08-31T03:07:15.691Z,0.00
2018-08-31T03:08:15.596Z,0.00
2018-08-31T03:09:15.507Z,0.00
2018-08-31T03:10:15.407Z,0.00
2018-08-31T03:11:15.330Z,0.00
2018-08-31T03:12:15.230Z,0.00
2018-08-31T03:13:15.128Z,0.00
2018-08-31T03:14:15.031Z,0.00
2018-08-31T03:15:15.037Z,0.00
2018-08-31T03:16:14.857Z,0.00
2018-08-31T03:17:14.744Z,0.00
2018-08-31T03:18:14.651Z,0.00
2018-08-31T03:19:14.558Z,0.00
2018-08-31T03:20:14.465Z,0.00
2018-08-31T03:21:14.483Z,0.00
2018-08-31T03:22:14.389Z,0.00
2018-08-31T03:23:14.180Z,0.00
2018-08-31T03:24:14.083Z,0.00
2018-08-31T03:25:13.990Z,0.00
2018-08-31T03:26:13.894Z,0.00
2018-08-31T03:27:13.818Z,0.00
2018-08-31T03:28:13.705Z,0.00
2018-08-31T03:29:13.611Z,0.00
2018-08-31T03:30:13.520Z,0.00
2018-08-31T03:31:13.422Z,0.00
2018-08-31T03:32:13.343Z,0.00
2018-08-31T03:33:13.230Z,0.00
2018-08-31T03:34:13.141Z,0.00
2018-08-31T03:35:13.171Z,0.00
2018-08-31T03:36:12.950Z,0.00
2018-08-31T03:37:12.871Z,0.00
2018-08-31T03:38:12.760Z,0.00
2018-08-31T03:39:12.666Z,0.00
2018-08-31T03:40:12.572Z,0.00
2018-08-31T03:41:12.477Z,0.00
2018-08-31T03:42:12.399Z,0.00
2018-08-31T03:43:12.288Z,0.00
2018-08-31T03:44:12.192Z,0.00
2018-08-31T03:45:12.101Z,0.00
2018-08-31T03:46:12.008Z,0.00
2018-08-31T03:47:11.924Z,0.00
2018-08-31T03:48:11.818Z,0.00
2018-08-31T03:49:11.721Z,0.00
2018-08-31T03:50:11.625Z,0.00
2018-08-31T03:51:11.530Z,4.00
2018-08-31T03:52:11.454Z,4.00
2018-08-31T03:53:11.340Z,4.00
2018-08-31T03:54:11.246Z,0.00
2018-08-31T03:55:11.153Z,4.00
2018-08-31T03:56:11.063Z,4.00
2018-08-31T03:57:10.981Z,8.00
2018-08-31T03:58:10.867Z,4.00
2018-08-31T03:59:10.773Z,8.00
2018-08-31T04:00:10.678Z,8.00
2018-08-31T04:01:10.584Z,8.00
2018-08-31T04:02:10.506Z,12.00
2018-08-31T04:03:10.395Z,12.00
2018-08-31T04:04:10.299Z,16.00
2018-08-31T04:05:10.211Z,20.00
2018-08-31T04:06:10.117Z,24.00
2018-08-31T04:07:10.036Z,28.00
2018-08-31T04:08:09.925Z,32.00
2018-08-31T04:09:09.828Z,40.00
2018-08-31T04:10:09.734Z,44.00
2018-08-31T04:11:09.639Z,52.00
2018-08-31T04:12:09.560Z,64.00
2018-08-31T04:13:09.452Z,72.00
2018-08-31T04:14:09.356Z,84.00
2018-08-31T04:15:09.386Z,104.00
2018-08-31T04:16:09.166Z,120.00
2018-08-31T04:17:09.090Z,136.00
2018-08-31T04:18:08.981Z,156.00
2018-08-31T04:19:08.881Z,188.00
2018-08-31T04:20:08.792Z,220.00
2018-08-31T04:21:08.694Z,252.00
2018-08-31T04:22:08.620Z,292.00
2018-08-31T04:23:08.523Z,328.00
2018-08-31T04:24:08.417Z,368.00
2018-08-31T04:25:08.324Z,412.00
2018-08-31T04:26:08.227Z,460.00
2018-08-31T04:27:08.133Z,504.00
2018-08-31T04:28:08.052Z,556.00
2018-08-31T04:29:07.938Z,604.00
2018-08-31T04:30:07.844Z,652.00
2018-08-31T04:31:07.748Z,696.00
2018-08-31T04:32:07.662Z,732.00
2018-08-31T04:33:07.578Z,772.00
2018-08-31T04:34:07.499Z,812.00
2018-08-31T04:35:07.372Z,852.00
2018-08-31T04:36:07.281Z,880.00
2018-08-31T04:37:07.186Z,908.00
2018-08-31T04:38:07.104Z,960.00
2018-08-31T04:39:06.998Z,1016.00
2018-08-31T04:40:06.903Z,1068.00
2018-08-31T04:41:06.809Z,1112.00
2018-08-31T04:42:06.714Z,1144.00
2018-08-31T04:43:06.635Z,1164.00
2018-08-31T04:44:06.521Z,1172.00
2018-08-31T04:45:06.429Z,1172.00
2018-08-31T04:46:06.334Z,1172.00
2018-08-31T04:47:06.240Z,1168.00
2018-08-31T04:48:06.164Z,1176.00
2018-08-31T04:49:06.049Z,1188.00
2018-08-31T04:50:05.957Z,1212.00
2018-08-31T04:51:05.860Z,1232.00
2018-08-31T04:52:05.767Z,1256.00
2018-08-31T04:53:05.693Z,1284.00
2018-08-31T04:54:05.578Z,1312.00
2018-08-31T04:55:05.487Z,1336.00
2018-08-31T04:56:05.391Z,1352.00
2018-08-31T04:57:05.299Z,1368.00
2018-08-31T04:58:05.219Z,1404.00
2018-08-31T04:59:05.216Z,1460.00
2018-08-31T05:00:05.012Z,1536.00
2018-08-31T05:01:04.922Z,1604.00
2018-08-31T05:02:04.825Z,1680.00
2018-08-31T05:03:04.749Z,1760.00
2018-08-31T05:04:04.638Z,1832.00
2018-08-31T05:05:04.543Z,1904.00
2018-08-31T05:06:04.553Z,1972.00
2018-08-31T05:07:04.352Z,2024.00
2018-08-31T05:08:04.277Z,2076.00
2018-08-31T05:09:04.170Z,2140.00
2018-08-31T05:10:04.070Z,2232.00
2018-08-31T05:11:03.993Z,2324.00
2018-08-31T05:12:03.885Z,2408.00
2018-08-31T05:13:03.907Z,2512.00
2018-08-31T05:14:03.695Z,2636.00
2018-08-31T05:15:03.604Z,2796.00
2018-08-31T05:16:03.540Z,2988.00
2018-08-31T05:17:03.418Z,3196.00
2018-08-31T05:18:03.337Z,3416.00
2018-08-31T05:19:03.230Z,3652.00
2018-08-31T05:20:03.236Z,3904.00
2018-08-31T05:21:03.036Z,4152.00
2018-08-31T05:22:02.943Z,4384.00
2018-08-31T05:23:02.933Z,4604.00
2018-08-31T05:24:02.753Z,4820.00
2018-08-31T05:25:02.664Z,5024.00
2018-08-31T05:26:02.570Z,5208.00
2018-08-31T05:27:02.577Z,5356.00
2018-08-31T05:28:02.397Z,5488.00
2018-08-31T05:29:02.289Z,5616.00
2018-08-31T05:30:02.201Z,5720.00
2018-08-31T05:31:02.098Z,5808.00
2018-08-31T05:32:02.013Z,5872.00
2018-08-31T05:33:01.927Z,5916.00
2018-08-31T05:34:01.935Z,5976.00
2018-08-31T05:35:01.727Z,6028.00
2018-08-31T05:36:01.631Z,6072.00
2018-08-31T05:37:01.542Z,6132.00
2018-08-31T05:38:01.461Z,6208.00
2018-08-31T05:39:01.351Z,6320.00
2018-08-31T05:40:01.298Z,6408.00
2018-08-31T05:41:01.261Z,6504.00
2018-08-31T05:42:01.069Z,6572.00
2018-08-31T05:43:00.993Z,6652.00
2018-08-31T05:44:00.882Z,6764.00
2018-08-31T05:45:00.789Z,6776.00
2018-08-31T05:46:00.696Z,7020.00
2018-08-31T05:47:00.603Z,7124.00
2018-08-31T05:48:00.628Z,7048.00
2018-08-31T05:49:00.416Z,6880.00
2018-08-31T05:50:00.322Z,6752.00
2018-08-31T05:51:00.229Z,6684.00
2018-08-31T05:52:00.138Z,6684.00
2018-08-31T05:53:00.060Z,6700.00
2018-08-31T05:54:00.078Z,6768.00
2018-08-31T05:54:59.856Z,6984.00
2018-08-31T05:55:59.763Z,7372.00
2018-08-31T05:56:59.672Z,7752.00
2018-08-31T05:57:59.598Z,8008.00
2018-08-31T05:58:59.484Z,8044.00
2018-08-31T05:59:59.390Z,8112.00
2018-08-31T06:00:59.299Z,8100.00
2018-08-31T06:01:59.290Z,7992.00
2018-08-31T06:02:59.127Z,8044.00
2018-08-31T06:03:59.018Z,7952.00
2018-08-31T06:04:58.927Z,7980.00
2018-08-31T06:05:58.836Z,8112.00
2018-08-31T06:06:58.741Z,8264.00
2018-08-31T06:07:58.663Z,8136.00
2018-08-31T06:08:58.554Z,8192.00
2018-08-31T06:09:58.461Z,8404.00
2018-08-31T06:10:58.369Z,8600.00
2018-08-31T06:11:58.335Z,8740.00
2018-08-31T06:12:58.186Z,8748.00
2018-08-31T06:13:58.108Z,8756.00
2018-08-31T06:14:57.995Z,8896.00
2018-08-31T06:15:57.909Z,9000.00
2018-08-31T06:16:57.811Z,9392.00
2018-08-31T06:17:57.721Z,9740.00
2018-08-31T06:18:57.646Z,9616.00
2018-08-31T06:19:57.538Z,9560.00
2018-08-31T06:20:57.454Z,9476.00
2018-08-31T06:21:57.347Z,10044.00
2018-08-31T06:22:57.260Z,10220.00
2018-08-31T06:23:57.180Z,10036.00
2018-08-31T06:24:57.074Z,9872.00
2018-08-31T06:25:56.981Z,10028.00
2018-08-31T06:26:56.893Z,10720.00
2018-08-31T06:27:56.799Z,10512.00
2018-08-31T06:28:56.720Z,11332.00
2018-08-31T06:29:56.609Z,11800.00
2018-08-31T06:30:56.515Z,11220.00
2018-08-31T06:31:56.425Z,11056.00
2018-08-31T06:32:56.332Z,11304.00
2018-08-31T06:33:56.336Z,11292.00
2018-08-31T06:34:56.178Z,12280.00
2018-08-31T06:35:56.068Z,13812.00
2018-08-31T06:36:55.967Z,16476.00
2018-08-31T06:37:55.873Z,18592.00
2018-08-31T06:38:55.817Z,20608.00
2018-08-31T06:39:55.690Z,21760.00
2018-08-31T06:40:55.596Z,25408.00
2018-08-31T06:41:55.505Z,28096.00
2018-08-31T06:42:55.411Z,26592.00
2018-08-31T06:43:55.340Z,24384.00
2018-08-31T06:44:55.230Z,22496.00
2018-08-31T06:45:55.140Z,15160.00
2018-08-31T06:46:55.048Z,15080.00
2018-08-31T06:47:54.954Z,15068.00
2018-08-31T06:48:54.880Z,14988.00
2018-08-31T06:49:54.771Z,13540.00
2018-08-31T06:50:54.679Z,11852.00
2018-08-31T06:51:54.590Z,11584.00
2018-08-31T06:52:54.502Z,11440.00
2018-08-31T06:53:54.425Z,10612.00
2018-08-31T06:54:54.315Z,10488.00
2018-08-31T06:55:54.226Z,10760.00
2018-08-31T06:56:54.238Z,11896.00
2018-08-31T06:57:54.046Z,12728.00
2018-08-31T06:58:54.018Z,12028.00
2018-08-31T06:59:53.864Z,11676.00
2018-08-31T07:00:53.770Z,11928.00
2018-08-31T07:01:53.681Z,11952.00
2018-08-31T07:02:53.590Z,11776.00
2018-08-31T07:03:53.581Z,11240.00
2018-08-31T07:04:53.409Z,10852.00
2018-08-31T07:05:53.316Z,10552.00
2018-08-31T07:06:53.224Z,10336.00
2018-08-31T07:07:53.135Z,10220.00
2018-08-31T07:08:53.057Z,10080.00
2018-08-31T07:09:52.951Z,9960.00
2018-08-31T07:10:52.957Z,9948.00
2018-08-31T07:11:52.769Z,10064.00
2018-08-31T07:12:52.679Z,10316.00
2018-08-31T07:13:52.614Z,10588.00
2018-08-31T07:14:52.495Z,11000.00
2018-08-31T07:15:52.404Z,11540.00
2018-08-31T07:16:52.314Z,12064.00
2018-08-31T07:17:52.318Z,12760.00
2018-08-31T07:18:52.149Z,13220.00
2018-08-31T07:19:52.081Z,13696.00
2018-08-31T07:20:51.948Z,13912.00
2018-08-31T07:21:51.856Z,13564.00
2018-08-31T07:22:51.770Z,14144.00
2018-08-31T07:23:51.694Z,16640.00
2018-08-31T07:24:51.690Z,14196.00
2018-08-31T07:25:51.495Z,13712.00
2018-08-31T07:26:51.423Z,12252.00
2018-08-31T07:27:51.318Z,11952.00
2018-08-31T07:28:51.239Z,12448.00
2018-08-31T07:29:51.129Z,12900.00
2018-08-31T07:30:51.047Z,13240.00
2018-08-31T07:31:50.948Z,13260.00
2018-08-31T07:32:50.855Z,12996.00
2018-08-31T07:33:50.843Z,12696.00
2018-08-31T07:34:50.681Z,12268.00
2018-08-31T07:35:50.679Z,12100.00
2018-08-31T07:36:50.495Z,11748.00
2018-08-31T07:37:50.403Z,11420.00
2018-08-31T07:38:50.328Z,11452.00
2018-08-31T07:39:50.223Z,11628.00
2018-08-31T07:40:50.133Z,12264.00
2018-08-31T07:41:50.037Z,12360.00
2018-08-31T07:42:49.947Z,12992.00
2018-08-31T07:43:49.871Z,13808.00
2018-08-31T07:44:49.765Z,14092.00
2018-08-31T07:45:49.675Z,14184.00
2018-08-31T07:46:49.587Z,13112.00
2018-08-31T07:47:49.563Z,13404.00
2018-08-31T07:48:49.421Z,13736.00
2018-08-31T07:49:49.316Z,13040.00
2018-08-31T07:50:49.220Z,13116.00
2018-08-31T07:51:49.131Z,13604.00
2018-08-31T07:52:49.037Z,14124.00
2018-08-31T07:53:48.983Z,13596.00
2018-08-31T07:54:48.856Z,15504.00
2018-08-31T07:55:48.767Z,19392.00
2018-08-31T07:56:48.685Z,27520.00
2018-08-31T07:57:48.583Z,34912.00
2018-08-31T07:58:48.514Z,38464.00
2018-08-31T07:59:48.402Z,43872.00
2018-08-31T08:00:48.617Z,37312.00
2018-08-31T08:01:48.221Z,37056.00
2018-08-31T08:02:48.131Z,38624.00
2018-08-31T08:03:48.047Z,45056.00
2018-08-31T08:04:47.968Z,43232.00
2018-08-31T08:05:47.862Z,33888.00
2018-08-31T08:06:47.772Z,26336.00
2018-08-31T08:07:47.783Z,22912.00
2018-08-31T08:08:47.596Z,23616.00
2018-08-31T08:09:47.523Z,19776.00
2018-08-31T08:10:47.412Z,18080.00
2018-08-31T08:11:47.324Z,16384.00
2018-08-31T08:12:47.234Z,15736.00
2018-08-31T08:13:47.147Z,15600.00
2018-08-31T08:14:47.187Z,15968.00
2018-08-31T08:15:46.968Z,15228.00
2018-08-31T08:16:46.878Z,17504.00
2018-08-31T08:17:46.816Z,18592.00
2018-08-31T08:18:46.702Z,17760.00
2018-08-31T08:19:46.625Z,16576.00
2018-08-31T08:20:46.617Z,17032.00
2018-08-31T08:21:46.432Z,18656.00
2018-08-31T08:22:46.343Z,24736.00
2018-08-31T08:23:46.256Z,26432.00
2018-08-31T08:24:46.184Z,24064.00
2018-08-31T08:25:46.083Z,26016.00
2018-08-31T08:26:46.000Z,23040.00
2018-08-31T08:27:45.895Z,23008.00
2018-08-31T08:28:45.906Z,23712.00
2018-08-31T08:29:45.740Z,20832.00
2018-08-31T08:30:45.629Z,16848.00
2018-08-31T08:31:45.542Z,15656.00
2018-08-31T08:32:45.452Z,16292.00
2018-08-31T08:33:45.363Z,19040.00
2018-08-31T08:34:45.291Z,22496.00
2018-08-31T08:35:45.192Z,24640.00
2018-08-31T08:36:45.098Z,26336.00
2018-08-31T08:37:45.017Z,27488.00
2018-08-31T08:38:44.919Z,28032.00
2018-08-31T08:39:44.843Z,29248.00
2018-08-31T08:40:44.738Z,31552.00
2018-08-31T08:41:44.650Z,32864.00
2018-08-31T08:42:44.571Z,35456.00
2018-08-31T08:43:44.474Z,43008.00
2018-08-31T08:44:44.402Z,39968.00
2018-08-31T08:45:44.298Z,38752.00
2018-08-31T08:46:44.207Z,26912.00
2018-08-31T08:47:44.117Z,21760.00
2018-08-31T08:48:44.177Z,22784.00
2018-08-31T08:49:43.962Z,23744.00
2018-08-31T08:50:43.856Z,23776.00
2018-08-31T08:51:43.766Z,23552.00
2018-08-31T08:52:43.677Z,23168.00
2018-08-31T08:53:43.591Z,21856.00
2018-08-31T08:54:43.524Z,21568.00
2018-08-31T08:55:43.411Z,22848.00
2018-08-31T08:56:43.328Z,26624.00
2018-08-31T08:57:43.239Z,33728.00
2018-08-31T08:58:43.155Z,46048.00
2018-08-31T08:59:43.073Z,57344.00
2018-08-31T09:00:42.965Z,34400.00
2018-08-31T09:01:42.888Z,29152.00
2018-08-31T09:02:42.793Z,28576.00
2018-08-31T09:03:42.704Z,33600.00
2018-08-31T09:04:42.634Z,39648.00
2018-08-31T09:05:42.663Z,42432.00
2018-08-31T09:06:42.441Z,41536.00
2018-08-31T09:07:42.354Z,51936.00
2018-08-31T09:08:42.263Z,44832.00
2018-08-31T09:09:42.195Z,46912.00
2018-08-31T09:10:42.090Z,32896.00
2018-08-31T09:11:42.027Z,34976.00
2018-08-31T09:12:41.912Z,28512.00
2018-08-31T09:13:41.827Z,30720.00
2018-08-31T09:14:41.754Z,36192.00
2018-08-31T09:15:41.651Z,29792.00
2018-08-31T09:16:41.564Z,25664.00
2018-08-31T09:17:41.474Z,25504.00
2018-08-31T09:18:41.388Z,28736.00
2018-08-31T09:19:41.319Z,33408.00
2018-08-31T09:20:41.214Z,44992.00
2018-08-31T09:21:41.126Z,53600.00
2018-08-31T09:22:41.042Z,84000.00
2018-08-31T09:23:40.954Z,72128.00
2018-08-31T09:24:40.955Z,51360.00
2018-08-31T09:25:40.777Z,50880.00
2018-08-31T09:26:40.689Z,43616.00
2018-08-31T09:27:40.605Z,35488.00
2018-08-31T09:28:40.517Z,34944.00
2018-08-31T09:29:40.451Z,37312.00
2018-08-31T09:30:40.365Z,38464.00
2018-08-31T09:31:40.259Z,46048.00
2018-08-31T09:32:40.239Z,36992.00
2018-08-31T09:33:40.081Z,34624.00
2018-08-31T09:34:39.997Z,39392.00
2018-08-31T09:35:39.925Z,46784.00
2018-08-31T09:36:39.821Z,61312.00
2018-08-31T09:37:39.743Z,29824.00
2018-08-31T09:38:39.652Z,25216.00
2018-08-31T09:39:39.583Z,23488.00
2018-08-31T09:40:39.481Z,28512.00
2018-08-31T09:41:39.397Z,32384.00
2018-08-31T09:42:39.306Z,32576.00
2018-08-31T09:43:39.221Z,41856.00
2018-08-31T09:44:39.254Z,38464.00
2018-08-31T09:45:39.064Z,81216.00
2018-08-31T09:46:38.961Z,79616.00
2018-08-31T09:47:38.876Z,55616.00
2018-08-31T09:48:38.788Z,61952.00
2018-08-31T09:49:38.730Z,60672.00
2018-08-31T09:50:38.633Z,59360.00
2018-08-31T09:51:38.630Z,57792.00
2018-08-31T09:52:38.447Z,75328.00
2018-08-31T09:53:38.358Z,68000.00
2018-08-31T09:54:38.277Z,68160.00
2018-08-31T09:55:38.205Z,59168.00
2018-08-31T09:56:38.105Z,58592.00
2018-08-31T09:57:38.019Z,67008.00
2018-08-31T09:58:38.039Z,75712.00
2018-08-31T09:59:37.849Z,83392.00
2018-08-31T10:00:37.776Z,92736.00
2018-08-31T10:01:37.674Z,83200.00
2018-08-31T10:02:37.595Z,79648.00
2018-08-31T10:03:37.519Z,73536.00
2018-08-31T10:04:37.422Z,75648.00
2018-08-31T10:05:37.459Z,76544.00
2018-08-31T10:06:37.251Z,73408.00
2018-08-31T10:07:37.165Z,79488.00
2018-08-31T10:08:37.082Z,77120.00
2018-08-31T10:09:36.997Z,76192.00
2018-08-31T10:10:36.944Z,84192.00
2018-08-31T10:11:36.829Z,67296.00
2018-08-31T10:12:36.846Z,86688.00
2018-08-31T10:13:36.661Z,80352.00
2018-08-31T10:14:36.574Z,67584.00
2018-08-31T10:15:36.511Z,32192.00
2018-08-31T10:16:36.409Z,32576.00
2018-08-31T10:17:36.325Z,71072.00
2018-08-31T10:18:36.260Z,85280.00
2018-08-31T10:19:36.256Z,78080.00
2018-08-31T10:20:36.092Z,76256.00
2018-08-31T10:21:35.991Z,75392.00
2018-08-31T10:22:35.909Z,81888.00
2018-08-31T10:23:35.822Z,75296.00
2018-08-31T10:24:35.738Z,74176.00
2018-08-31T10:25:35.672Z,79776.00
2018-08-31T10:26:35.685Z,78976.00
2018-08-31T10:27:35.488Z,74976.00
2018-08-31T10:28:35.407Z,74752.00
2018-08-31T10:29:35.324Z,79488.00
2018-08-31T10:30:35.256Z,80352.00
2018-08-31T10:31:35.161Z,84000.00
2018-08-31T10:32:35.078Z,81888.00
2018-08-31T10:33:35.091Z,86656.00
2018-08-31T10:34:34.908Z,85312.00
2018-08-31T10:35:34.842Z,88320.00
2018-08-31T10:36:34.746Z,53440.00
2018-08-31T10:37:34.663Z,88800.00
2018-08-31T10:38:34.580Z,77632.00
2018-08-31T10:39:34.498Z,76288.00
2018-08-31T10:40:34.536Z,54880.00
2018-08-31T10:41:34.334Z,68608.00
2018-08-31T10:42:34.251Z,54080.00
2018-08-31T10:43:34.170Z,30368.00
2018-08-31T10:44:34.085Z,39136.00
2018-08-31T10:45:34.025Z,34240.00
2018-08-31T10:46:34.006Z,28992.00
2018-08-31T10:47:33.940Z,27936.00
2018-08-31T10:48:33.759Z,22112.00
2018-08-31T10:49:33.676Z,24000.00
2018-08-31T10:50:33.613Z,29344.00
2018-08-31T10:51:33.512Z,86400.00
2018-08-31T10:52:33.435Z,80448.00
2018-08-31T10:53:33.349Z,84192.00
2018-08-31T10:54:33.360Z,69152.00
2018-08-31T10:55:33.194Z,60480.00
2018-08-31T10:56:33.099Z,62720.00
2018-08-31T10:57:33.011Z,54144.00
2018-08-31T10:58:32.931Z,42560.00
2018-08-31T10:59:32.843Z,48832.00
2018-08-31T11:00:32.796Z,38336.00
2018-08-31T11:01:32.794Z,24736.00
2018-08-31T11:02:32.594Z,22656.00
2018-08-31T11:03:32.563Z,22464.00
2018-08-31T11:04:32.432Z,24192.00
2018-08-31T11:05:32.361Z,27552.00
2018-08-31T11:06:32.260Z,32736.00
2018-08-31T11:07:32.179Z,47392.00
2018-08-31T11:08:32.092Z,57312.00
2018-08-31T11:09:32.009Z,59008.00
2018-08-31T11:10:31.945Z,61696.00
2018-08-31T11:11:31.842Z,55872.00
2018-08-31T11:12:31.763Z,42336.00
2018-08-31T11:13:31.670Z,44384.00
2018-08-31T11:14:31.585Z,41376.00
2018-08-31T11:15:31.520Z,48480.00
2018-08-31T11:16:31.413Z,53760.00
2018-08-31T11:17:31.328Z,42336.00
2018-08-31T11:18:31.244Z,38016.00
2018-08-31T11:19:31.162Z,33472.00
2018-08-31T11:20:31.091Z,37056.00
2018-08-31T11:21:30.995Z,42336.00
2018-08-31T11:22:30.905Z,44320.00
2018-08-31T11:23:30.821Z,42528.00
2018-08-31T11:24:30.734Z,48224.00
2018-08-31T11:25:30.667Z,48960.00
2018-08-31T11:26:30.564Z,30848.00
2018-08-31T11:27:30.478Z,30528.00
2018-08-31T11:28:30.398Z,45344.00
2018-08-31T11:29:30.307Z,51360.00
2018-08-31T11:30:30.224Z,39264.00
2018-08-31T11:31:30.155Z,48000.00
2018-08-31T11:32:30.050Z,47456.00
2018-08-31T11:33:29.967Z,40576.00
2018-08-31T11:34:29.884Z,41984.00
2018-08-31T11:35:29.798Z,37056.00
2018-08-31T11:36:29.729Z,48864.00
2018-08-31T11:37:29.628Z,31872.00
2018-08-31T11:38:29.540Z,31872.00
2018-08-31T11:39:29.496Z,54720.00
2018-08-31T11:40:29.371Z,60128.00
2018-08-31T11:41:29.302Z,55136.00
2018-08-31T11:42:29.200Z,40704.00
2018-08-31T11:43:29.165Z,57696.00
2018-08-31T11:44:29.028Z,54752.00
2018-08-31T11:45:28.947Z,37792.00
2018-08-31T11:46:28.874Z,43936.00
2018-08-31T11:47:28.770Z,29856.00
2018-08-31T11:48:28.684Z,26240.00
2018-08-31T11:49:28.601Z,24448.00
2018-08-31T11:50:28.517Z,21536.00
2018-08-31T11:51:28.446Z,20096.00
2018-08-31T11:52:28.348Z,20128.00
2018-08-31T11:53:28.263Z,19936.00
2018-08-31T11:54:28.172Z,18976.00
2018-08-31T11:55:28.092Z,18016.00
2018-08-31T11:56:28.025Z,17120.00
2018-08-31T11:57:27.922Z,15768.00
2018-08-31T11:58:27.837Z,14744.00
2018-08-31T11:59:27.751Z,13916.00
2018-08-31T12:00:27.662Z,13904.00
2018-08-31T12:01:27.733Z,14460.00
2018-08-31T12:02:27.490Z,15404.00
2018-08-31T12:03:27.405Z,16292.00
2018-08-31T12:04:27.320Z,17024.00
2018-08-31T12:05:27.234Z,17344.00
2018-08-31T12:06:27.165Z,17664.00
2018-08-31T12:07:27.061Z,18272.00
2018-08-31T12:08:26.975Z,18944.00
2018-08-31T12:09:26.890Z,19296.00
2018-08-31T12:10:26.802Z,20032.00
2018-08-31T12:11:26.733Z,20864.00
2018-08-31T12:12:26.635Z,21856.00
2018-08-31T12:13:26.544Z,23200.00
2018-08-31T12:14:26.456Z,25088.00
2018-08-31T12:15:26.369Z,27296.00
2018-08-31T12:16:26.301Z,30240.00
2018-08-31T12:17:26.197Z,32192.00